Latest Coastal Weather Observations for Kowanyama

IDQ60701

Issued at 3:21 am EST Saturday 10 December 2016 (issued every 10 minutes, with the page automatically refreshed every 10 minutes)

About coastal observations | Map of coastal stations | Coastal observations for QLD | Marine services | Other Formats
Station Details ID: 029038 Name: KOWANYAMA AIRPORT Lat: -15.48 Lon: 141.75 Height: 9.6 m
Data from the previous 72 hours. | See also: Recent months at Kowanyama
Date/Time
EST
Temp
°C
Wind Pressure Rain since
9am
mm
Weather Cloud Vis
km
Sea
Height
m
Swell
Dir  Spd
kts
Gust
kts
hPa Trend Height
m
Period
s
Dir
10/03:05am 23.0 S 15 31 1008.7 - 2.2 - Partly cloudy 5 - - - -
10/03:04am 23.3 S 15 31 1008.6 - 1.6 - Partly cloudy 7 - - - -
10/03:00am 25.2 SSW 13 21 1008.7 - 0.0 Rain Cloudy 10 - - - -
10/02:45am 27.3 S 8 20 1008.6 - 0.0 - Partly cloudy 10 - - - -
10/02:30am 28.8 SSE 4 5 1008.4 - 0.0 - Partly cloudy 10 - - - -
10/02:00am 28.5 ESE 4 5 1008.0 - 0.0 - Partly cloudy 10 - - - -
10/01:30am 28.5 E 5 8 1007.5 - 0.0 - Partly cloudy 10 - - - -
10/01:00am 28.4 NNE 5 7 1007.3 - 0.0 - Partly cloudy 10 - - - -
10/12:30am 28.4 NNE 4 6 1007.7 - 0.0 - - 10 - - - -
10/12:00am 28.5 NE 6 10 1008.2 - 0.0 - Mostly clear 10 - - - -
 
Date/Time
EST
Temp
°C
Wind Pressure Rain since
9am
mm
Weather Cloud Vis
km
Sea
Height
m
Swell
Dir  Spd
kts
Gust
kts
hPa Trend Height
m
Period
s
Dir
09/11:30pm 27.9 NE 4 11 1008.5 - 0.0 - - 10 - - - -
09/11:00pm 27.7 CALM 0 0 1008.0 - 0.0 - - 10 - - - -
09/10:30pm 28.5 CALM 0 0 1007.8 - 0.0 - - 10 - - - -
09/10:00pm 28.9 NNW 3 4 1007.7 - 0.0 - - 10 - - - -
09/09:30pm 28.8 SW 3 5 1007.6 - 0.0 - - 10 - - - -
09/09:00pm 29.1 W 4 5 1007.2 - 0.0 - - 10 - - - -
09/08:30pm 29.2 WSW 4 5 1006.9 - 0.0 - - 10 - - - -
09/08:00pm 29.4 W 7 11 1006.5 - 0.0 - - 10 - - - -
09/07:30pm 29.8 WSW 8 11 1006.3 - 0.0 - - 10 - - - -
09/07:00pm 30.3 WSW 9 12 1006.0 - 0.0 - - 10 - - - -
09/06:30pm 31.1 WSW 9 14 1005.8 - 0.0 - - 10 - - - -
09/06:00pm 32.2 WSW 11 15 1005.6 - 0.0 - - 10 - - - -
09/05:30pm 32.8 W 11 15 1005.6 - 0.0 - - 10 - - - -
09/05:00pm 33.5 W 12 16 1005.4 - 0.0 - - 10 - - - -
09/04:30pm 34.2 W 12 16 1005.3 - 0.0 - - 10 - - - -
09/04:00pm 34.7 WSW 12 18 1005.4 - 0.0 - Partly cloudy 10 - - - -
09/03:30pm 34.8 W 12 18 1005.4 - 0.0 - Partly cloudy 10 - - - -
09/03:00pm 35.2 W 11 15 1005.7 - 0.0 - Partly cloudy 10 - - - -
09/02:30pm 35.3 WSW 12 16 1006.0 - 0.0 - Partly cloudy 10 - - - -
09/02:00pm 35.4 W 6 9 1006.1 - 0.0 - Partly cloudy 10 - - - -
09/01:30pm 35.8 W 7 13 1006.7 - 0.0 - Partly cloudy 10 - - - -
09/01:00pm 35.0 NW 3 5 1007.1 - 0.0 - Partly cloudy 10 - - - -
09/12:30pm 34.4 NNE 4 5 1007.7 - 0.0 - Partly cloudy 10 - - - -
09/12:00pm 33.9 WSW 5 9 1008.0 - 0.0 - Partly cloudy 10 - - - -
09/11:30am 34.0 SE 5 10 1008.4 - 0.0 - - 10 - - - -
09/11:00am 34.3 N 4 7 1008.9 - 0.0 - - 10 - - - -
09/10:30am 33.9 WNW 4 6 1009.4 - 0.0 - - 10 - - - -
09/10:00am 32.8 NE 5 8 1009.7 - 0.0 - - 10 - - - -
09/09:30am 31.6 NE 5 8 1010.0 - 0.0 - - 10 - - - -
09/09:00am 30.4 NE 6 10 1010.1 - 0.0 - - 10 - - - -
09/08:30am 30.4 NE 7 10 1010.3 - 0.0 - Partly cloudy 10 - - - -
09/08:00am 29.4 NE 6 11 1010.4 - 0.0 - Partly cloudy 10 - - - -
09/07:30am 28.4 NE 7 11 1010.3 - 0.0 - - 10 - - - -
09/07:00am 27.7 NE 7 9 1010.0 - 0.0 - - 10 - - - -
09/06:30am 26.9 ENE 3 5 1009.6 - 0.0 - Partly cloudy 10 - - - -
09/06:00am 26.6 E 3 4 1009.2 - 0.0 - Mostly clear 10 - - - -
09/05:30am 26.7 NE 4 5 1008.5 - 0.0 - - 10 - - - -
09/05:00am 27.1 NNE 4 6 1008.4 - 0.0 - - 10 - - - -
09/04:30am 27.6 NE 5 8 1008.1 - 0.0 - Partly cloudy 10 - - - -
09/04:00am 27.8 NE 5 7 1007.6 - 0.0 - - 10 - - - -
09/03:30am 28.2 NNE 5 9 1007.7 - 0.0 - - 10 - - - -
09/03:00am 28.7 NNE 7 12 1007.6 - 0.0 - Partly cloudy 10 - - - -
09/02:30am 27.9 NNE 4 5 1007.5 - 0.0 - Partly cloudy 10 - - - -
09/02:00am 28.0 N 4 5 1007.6 - 0.0 - Partly cloudy 10 - - - -
09/01:30am 27.9 NE 4 5 1007.7 - 0.0 - Partly cloudy 10 - - - -
09/01:00am 28.1 N 1 3 1007.8 - 0.0 - - 10 - - - -
09/12:30am 28.3 N 3 5 1007.9 - 0.0 - Partly cloudy 10 - - - -
09/12:00am 28.4 NNE 4 5 1008.2 - 0.0 - Mostly cloudy 10 - - - -
 
Date/Time
EST
Temp
°C
Wind Pressure Rain since
9am
mm
Weather Cloud Vis
km
Sea
Height
m
Swell
Dir  Spd
kts
Gust
kts
hPa Trend Height
m
Period
s
Dir
08/11:30pm 28.0 N 1 3 1008.4 - 0.0 - Partly cloudy 10 - - - -
08/11:00pm 28.3 CALM 0 3 1008.3 - 0.0 - - 10 - - - -
08/10:30pm 28.5 NNE 4 5 1008.0 - 0.0 - - 10 - - - -
08/10:00pm 28.8 N 3 4 1007.7 - 0.0 - - 10 - - - -
08/09:30pm 29.2 NW 4 5 1007.5 - 0.0 - - 10 - - - -
08/09:00pm 29.3 WSW 4 6 1006.7 - 0.0 - - 10 - - - -
08/08:30pm 29.7 WSW 6 8 1006.3 - 0.0 - - 10 - - - -
08/08:00pm 30.1 SW 7 10 1006.0 - 0.0 - - 10 - - - -
08/07:30pm 30.4 WSW 9 13 1005.7 - 0.0 - - 10 - - - -
08/07:00pm 31.2 W 8 11 1005.2 - 0.0 - - 10 - - - -
08/06:30pm 32.4 WSW 10 15 1004.8 - 0.0 - - 10 - - - -
08/06:00pm 33.5 WSW 11 15 1004.5 - 0.0 - - 10 - - - -
08/05:30pm 34.2 WSW 12 15 1004.3 - 0.0 - Partly cloudy 10 - - - -
08/05:00pm 35.9 WSW 10 14 1003.9 - 0.0 - Partly cloudy 10 - - - -
08/04:30pm 38.5 SE 5 11 1003.8 - 0.0 - - 10 - - - -
08/04:00pm 37.9 SE 8 11 1004.0 - 0.0 - - 10 - - - -
08/03:30pm 37.3 E 8 12 1004.2 - 0.0 - Partly cloudy 10 - - - -
08/03:00pm 38.0 E 9 16 1004.5 - 0.0 - Mostly clear 10 - - - -
08/02:30pm 37.9 E 8 22 1004.8 - 0.0 - Partly cloudy 10 - - - -
08/02:00pm 36.1 E 7 14 1005.4 - 0.0 - Partly cloudy 10 - - - -
08/01:30pm 37.0 S 5 13 1006.0 - 0.0 - Partly cloudy 10 - - - -
08/01:00pm 36.2 ESE 5 8 1006.5 - 0.0 - Partly cloudy 10 - - - -
08/12:30pm 34.4 E 6 11 1007.0 - 0.0 - Partly cloudy 10 - - - -
08/12:00pm 34.1 E 7 11 1007.4 - 0.0 - Partly cloudy 10 - - - -
08/11:30am 34.7 E 7 13 1007.8 - 0.0 - Partly cloudy 10 - - - -
08/11:00am 32.9 NE 8 14 1008.4 - 0.0 - Partly cloudy 10 - - - -
08/10:30am 34.3 NNE 4 9 1008.7 - 0.0 - Partly cloudy 10 - - - -
08/10:00am 32.1 NE 8 13 1008.9 - 0.0 - Partly cloudy 10 - - - -
08/09:30am 31.4 NNE 7 11 1009.2 - 0.0 - Partly cloudy 10 - - - -
08/09:00am 31.0 NE 8 13 1009.3 - 0.0 - - 10 - - - -
08/08:30am 30.0 NNE 6 12 1009.4 - 0.0 - - 10 - - - -
08/08:00am 29.4 NE 6 9 1009.7 - 0.0 - - 10 - - - -
08/07:30am 28.4 NNE 4 7 1009.8 - 0.0 - - 10 - - - -
08/07:00am 27.8 CALM 0 0 1009.6 - 0.0 - - 10 - - - -
08/06:30am 27.2 CALM 0 0 1009.3 - 0.0 - - 10 - - - -
08/06:00am 26.3 NNE 1 5 1008.8 - 0.0 - - 10 - - - -
08/05:30am 26.7 NNE 4 6 1008.5 - 0.0 - - 10 - - - -
08/05:00am 26.9 NNE 4 7 1008.3 - 0.0 - - 10 - - - -
08/04:30am 27.2 NNE 5 9 1008.3 - 0.0 - - 10 - - - -
08/04:00am 27.4 NE 5 8 1008.0 - 0.0 - - 10 - - - -
08/03:30am 27.5 NE 5 9 1008.0 - 0.0 - - 10 - - - -
08/03:00am 27.4 NNE 5 7 1008.0 - 0.0 - - 10 - - - -
08/02:30am 26.5 NNE 3 5 1008.0 - 0.0 - - 10 - - - -
08/02:00am 25.9 ENE 3 4 1007.9 - 0.0 - - 10 - - - -
08/01:30am 26.2 NE 3 4 1008.0 - 0.0 - - 10 - - - -
08/01:00am 26.2 NE 4 6 1008.3 - 0.0 - - 10 - - - -
08/12:30am 26.5 NE 4 5 1008.5 - 0.0 - - 10 - - - -
08/12:00am 26.2 NE 3 4 1008.8 - 0.0 - - 10 - - - -
 
Date/Time
EST
Temp
°C
Wind Pressure Rain since
9am
mm
Weather Cloud Vis
km
Sea
Height
m
Swell
Dir  Spd
kts
Gust
kts
hPa Trend Height
m
Period
s
Dir
07/11:30pm 26.8 NNE 3 4 1008.9 - 0.0 - - 10 - - - -
07/11:00pm 27.3 N 4 5 1008.8 - 0.0 - - 10 - - - -
07/10:30pm 27.5 NNE 6 10 1008.5 - 0.0 - - 10 - - - -
07/10:00pm 28.1 WNW 3 5 1008.0 - 0.0 - - 10 - - - -
07/09:30pm 28.8 NW 3 6 1007.6 - 0.0 - - 10 - - - -
07/09:00pm 28.8 SSW 6 7 1007.2 - 0.0 - - 10 - - - -
07/08:30pm 29.0 SW 6 9 1007.0 - 0.0 - - 10 - - - -
07/08:00pm 29.4 WSW 6 8 1007.0 - 0.0 - - 10 - - - -
07/07:30pm 30.0 SSW 5 10 1006.9 - 0.0 - - 10 - - - -
07/07:00pm 30.8 WSW 9 12 1006.6 - 0.0 - - 10 - - - -
07/06:30pm 32.2 WSW 6 9 1006.3 - 0.0 - - 10 - - - -
07/06:00pm 33.4 WSW 7 9 1006.1 - 0.0 - - 10 - - - -
07/05:30pm 36.9 SE 6 10 1005.9 - 0.0 - - 10 - - - -
07/05:00pm 37.0 E 6 11 1005.7 - 0.0 - - 10 - - - -
07/04:30pm 37.1 ESE 6 13 1005.7 - 0.0 - - 10 - - - -
07/04:00pm 37.9 SE 8 15 1005.7 - 0.0 - - 10 - - - -
07/03:30pm 37.6 E 7 12 1006.0 - 0.0 - - 10 - - - -
07/03:00pm 37.1 ENE 6 15 1006.5 - 0.0 - - 10 - - - -
07/02:30pm 36.4 NE 7 13 1006.9 - 0.0 - - 10 - - - -
07/02:00pm 36.6 SE 5 14 1007.4 - 0.0 - - 10 - - - -
07/01:30pm 35.4 E 8 14 1008.0 - 0.0 - - 10 - - - -
07/01:00pm 35.2 NNE 7 11 1008.4 - 0.0 - - 10 - - - -
07/12:30pm 34.8 ENE 5 10 1008.8 - 0.0 - - 10 - - - -
07/12:00pm 34.4 SE 7 13 1009.2 - 0.0 - - 10 - - - -
07/11:30am 34.0 SE 7 14 1009.8 - 0.0 - - 10 - - - -
07/11:00am 32.2 E 6 11 1010.1 - 0.0 - - 10 - - - -
07/10:30am 32.1 ESE 7 11 1010.8 - 0.0 - - 10 - - - -
07/10:00am 30.7 NE 7 12 1011.2 - 0.0 - - 10 - - - -
07/09:30am 30.4 ENE 7 11 1011.5 - 0.0 - - 10 - - - -
07/09:00am 29.5 ENE 8 13 1011.6 - 0.0 - - 10 - - - -
07/08:30am 28.7 ENE 8 13 1011.5 - 0.0 - - 10 - - - -
07/08:00am 28.1 ENE 7 12 1011.5 - 0.0 - - 10 - - - -
07/07:30am 27.1 NE 5 7 1011.4 - 0.0 - - 10 - - - -
07/07:00am 25.6 NE 2 4 1011.4 - 0.0 - - 10 - - - -
07/06:30am 23.2 CALM 0 3 1011.3 - 0.0 - - 10 - - - -
07/06:00am 22.6 CALM 0 0 1010.7 - 0.0 - - 10 - - - -
07/05:30am 23.5 CALM 0 0 1010.5 - 0.0 - - 10 - - - -
07/05:00am 23.6 CALM 0 0 1010.2 - 0.0 - - 10 - - - -
07/04:30am 24.5 CALM 0 1 1009.8 - 0.0 - - 10 - - - -
07/04:00am 25.6 N 4 4 1009.4 - 0.0 - - 10 - - - -
07/03:30am 25.9 N 5 6 1009.0 - 0.0 - - 10 - - - -

Other Formats:

Comma delimited format used in spreadsheet applications
http://www.bom.gov.au/fwo/IDQ60701/IDQ60701.94268.axf

JavaScript Object Notation format (JSON) in row-major order
http://www.bom.gov.au/fwo/IDQ60701/IDQ60701.94268.json